Flight Track Log - Related Links

Times and Time Zones

All times are in EDT time to prevent confusion due to time zone crossing. See the AWE710 flight status page for this flight to view local times or setup timezone preferences in your user account.

Time Position Orientation Groundspeed Altitude Reporting Facility
EDT Latitude Longitude Course Direction KTS MPH feet Rate Location/Type
Sat 11:29:33 AM 37.6500 -122.3333 70° East 171 197 2,600  Level Northern Cal TRACON
Sat 11:30:32 AM 37.6833 -122.2833 50° Northeast 207 238 4,100 1,273 Climbing Northern Cal TRACON
Sat 11:31:00 AM 37.6208 -122.3916 122° Southeast  Level FlightAware Approximate
Sat 11:31:12 AM 37.7136 -122.2453 45° Northeast 228 262 4,700  Level Oakland Center
Sat 11:32:00 AM 37.6547 -122.2314 72° East  Level FlightAware Approximate
Sat 11:32:13 AM 37.7631 -122.1708 50° Northeast 272 313 6,600  Level Oakland Center
Sat 11:33:00 AM 37.7118 -122.0780 62° Northeast  Level FlightAware Approximate
Sat 11:33:14 AM 37.7942 -122.0772 67° East 288 331 8,600  Level Oakland Center
Sat 11:34:00 AM 37.7569 -121.9177 70° East  Level FlightAware Approximate
Sat 11:34:15 AM 37.8208 -121.9772 71° East 299 344 10,300  Level Oakland Center
Sat 11:35:16 AM 37.8486 -121.8736 71° East 311 358 12,100 1,426 Climbing Oakland Center
Sat 11:36:17 AM 37.8772 -121.7647 72° East 324 373 13,200 885 Climbing Oakland Center
Sat 11:37:18 AM 37.9094 -121.6425 71° East 361 415 13,900 639 Climbing Oakland Center
Sat 11:38:19 AM 37.9442 -121.5078 72° East 400 460 14,500 1,033 Climbing Oakland Center
Sat 11:39:20 AM 37.9864 -121.3472 72° East 428 493 16,000 1,426 Climbing Oakland Center
Sat 11:40:21 AM 38.0244 -121.2022 72° East 434 499 17,400 1,082 Climbing Oakland Center
Sat 11:41:22 AM 38.0617 -121.0519 72° East 447 514 18,200 885 Climbing Oakland Center
Sat 11:42:23 AM 38.0908 -120.8939 77° East 462 532 19,200 934 Climbing Oakland Center
Sat 11:43:24 AM 38.1131 -120.7286 80° East 474 545 20,100 984 Climbing Oakland Center
Sat 11:44:25 AM 38.1347 -120.5600 81° East 482 555 21,200 984 Climbing Oakland Center
Sat 11:45:26 AM 38.1625 -120.3544 80° East 492 566 22,100 934 Climbing Oakland Center
Sat 11:46:27 AM 38.1856 -120.1806 80° East 500 575 23,100 836 Climbing Oakland Center
Sat 11:47:28 AM 38.2069 -120.0039 81° East 505 581 23,800 738 Climbing Oakland Center
Sat 11:48:29 AM 38.2297 -119.8267 81° East 509 586 24,600 738 Climbing Oakland Center
Sat 11:49:30 AM 38.2517 -119.6467 81° East 515 593 25,300 738 Climbing Oakland Center
Sat 11:50:31 AM 38.2753 -119.4506 81° East 520 598 26,100 787 Climbing Oakland Center
Sat 11:51:32 AM 38.2953 -119.2917 81° East 520 598 26,900 732 Climbing Oakland Center
Sat 11:52:34 AM 38.3172 -119.1094 81° East 522 601 27,600 780 Climbing Oakland Center
Sat 11:53:35 AM 38.3428 -118.8922 81° East 520 598 28,500 738 Climbing Oakland Center
Sat 11:54:36 AM 38.3644 -118.7081 81° East 527 606 29,100 541 Climbing Oakland Center
Sat 11:55:37 AM 38.3861 -118.5258 81° East 524 603 29,600 443 Climbing Oakland Center
Sat 11:56:38 AM 38.4067 -118.3450 82° East 520 598 30,000 443 Climbing Oakland Center
Sat 11:57:39 AM 38.4275 -118.1625 82° East 521 600 30,500 492 Climbing Oakland Center
Sat 11:58:40 AM 38.4469 -117.9864 82° East 521 600 31,000 246 Climbing Oakland Center
Sat 11:59:41 AM 38.4664 -117.8022 82° East 521 600 31,000  Level Oakland Center
Sat 12:00:42 PM 38.4861 -117.6147 82° East 529 609 31,000  Level Oakland Center
Sat 12:01:43 PM 38.5058 -117.4253 82° East 533 613 31,000  Level Oakland Center
Sat 12:02:44 PM 38.5192 -117.2356 85° East 531 611 31,000  Level Oakland Center
Sat 12:02:59 PM 38.5181 -117.1592 91° East 530 610 31,000  Level Salt Lake Center
Sat 12:04:00 PM 38.5125 -116.9692 92° East 530 610 31,000  Level Salt Lake Center
Sat 12:04:47 PM 38.5103 -116.8550 91° East 531 611 31,000  Level Oakland Center
Sat 12:05:48 PM 38.5056 -116.6661 92° East 530 610 31,000  Level Oakland Center
Sat 12:06:04 PM 38.5039 -116.5900 92° East 530 610 31,000  Level Salt Lake Center
Sat 12:07:05 PM 38.4994 -116.4006 92° East 531 611 31,000  Level Salt Lake Center
Sat 12:07:50 PM 38.4944 -116.2489 92° East 534 615 31,000  Level Oakland Center
Sat 12:08:51 PM 38.5028 -116.0600 87° East 534 615 31,000  Level Oakland Center
Sat 12:09:08 PM 38.5097 -116.0233 76° East 535 616 31,000  Level Salt Lake Center
Sat 12:10:10 PM 38.5475 -115.8425 75° East 528 608 31,000  Level Salt Lake Center
Sat 12:11:12 PM 38.5825 -115.6608 76° East 527 606 31,000  Level Salt Lake Center
Sat 12:12:13 PM 38.6169 -115.4792 76° East 526 605 31,000 49 Level Salt Lake Center
Sat 12:13:15 PM 38.6561 -115.2786 76° East 532 612 31,100  Climbing Salt Lake Center
Sat 12:14:16 PM 38.6911 -115.0964 76° East 530 610 31,000 -49 Descending Salt Lake Center
Sat 12:15:18 PM 38.7247 -114.9161 77° East 526 605 31,000  Level Salt Lake Center
Sat 12:16:20 PM 38.7581 -114.7347 77° East 524 603 31,000  Level Salt Lake Center
Sat 12:17:21 PM 38.8014 -114.5139 76° East 528 608 31,000  Level Salt Lake Center
Sat 12:18:23 PM 38.8353 -114.3325 76° East 524 603 31,000  Level Salt Lake Center
Sat 12:19:25 PM 38.8689 -114.1500 77° East 524 603 31,000  Level Salt Lake Center
Sat 12:20:26 PM 38.9017 -113.9686 77° East 523 602 31,000  Level Salt Lake Center
Sat 12:21:28 PM 38.9347 -113.7867 77° East 523 602 31,000  Level Salt Lake Center
Sat 12:22:29 PM 38.9667 -113.6039 77° East 524 603 31,000  Level Salt Lake Center
Sat 12:23:31 PM 38.9983 -113.4194 77° East 527 606 31,000  Level Salt Lake Center
Sat 12:24:33 PM 39.0317 -113.2361 77° East 526 605 31,000  Level Salt Lake Center
Sat 12:25:34 PM 39.0692 -113.0150 78° East 526 605 31,000  Level Salt Lake Center
Sat 12:26:36 PM 39.1003 -112.8319 78° East 524 603 31,000  Level Salt Lake Center
Sat 12:27:37 PM 39.1314 -112.6492 78° East 524 603 31,000  Level Salt Lake Center
Sat 12:28:39 PM 39.1617 -112.4683 78° East 518 596 31,000  Level Salt Lake Center
Sat 12:29:41 PM 39.1917 -112.2881 78° East 515 593 31,000  Level Salt Lake Center
Sat 12:30:42 PM 39.2211 -112.1075 78° East 515 593 31,000  Level Salt Lake Center
Sat 12:31:44 PM 39.2522 -111.9250 78° East 517 595 31,000  Level Salt Lake Center
Sat 12:32:46 PM 39.2808 -111.7444 78° East 517 595 31,000  Level Salt Lake Center
Sat 12:33:47 PM 39.3150 -111.5278 78° East 516 594 31,000  Level Salt Lake Center
Sat 12:34:49 PM 39.3431 -111.3472 79° East 516 594 31,000  Level Salt Lake Center
Sat 12:35:50 PM 39.3706 -111.1639 79° East 513 590 31,000  Level Salt Lake Center
Sat 12:36:52 PM 39.3969 -110.9919 79° East 511 588 31,000  Level Salt Lake Center
Sat 12:37:54 PM 39.4286 -110.7881 79° East 517 595 31,000  Level Salt Lake Center
Sat 12:38:55 PM 39.4547 -110.6122 79° East 520 598 31,000  Level Salt Lake Center
Sat 12:39:57 PM 39.4808 -110.4372 79° East 519 597 31,000  Level Salt Lake Center
Sat 12:40:27 PM 39.4964 -110.3181 80° East 518 596 31,000  Level Denver Center
Sat 12:41:29 PM 39.5208 -110.1428 80° East 518 596 31,000  Level Denver Center
Sat 12:42:31 PM 39.5517 -109.9392 79° East 515 593 31,000  Level Denver Center
Sat 12:43:02 PM 39.5647 -109.8506 79° East 522 601 31,000  Level Salt Lake Center
Sat 12:43:33 PM 39.5769 -109.7603 80° East 523 602 31,000  Level Denver Center
Sat 12:44:35 PM 39.6011 -109.5844 80° East 518 596 31,000  Level Denver Center
Sat 12:45:05 PM 39.6181 -109.4672 79° East 522 601 31,000  Level Salt Lake Center
Sat 12:45:37 PM 39.6289 -109.3767 81° East 524 603 31,000  Level Denver Center
Sat 12:46:06 PM 39.6422 -109.2900 79° East 523 602 31,000  Level Salt Lake Center
Sat 12:47:08 PM 39.6664 -109.1119 80° East 522 601 31,000  Level Salt Lake Center
Sat 12:47:41 PM 39.6819 -108.9906 81° East 523 602 31,000  Level Denver Center
Sat 12:48:43 PM 39.7053 -108.8103 80° East 520 598 31,000  Level Denver Center
Sat 12:49:45 PM 39.7300 -108.6269 80° East 521 600 31,000  Level Denver Center
Sat 12:50:47 PM 39.7572 -108.4167 80° East 525 604 31,000  Level Denver Center
Sat 12:51:49 PM 39.7811 -108.2378 80° East 523 602 31,000  Level Denver Center
Sat 12:52:51 PM 39.8064 -108.0292 81° East 521 600 31,000  Level Denver Center
Sat 12:53:53 PM 39.8294 -107.8483 81° East 528 608 31,000  Level Denver Center
Sat 12:54:55 PM 39.8542 -107.6367 81° East 529 609 31,000  Level Denver Center
Sat 12:55:57 PM 39.8769 -107.4561 81° East 529 609 31,000  Level Denver Center
Sat 12:56:59 PM 39.9025 -107.2469 81° East 525 604 31,000  Level Denver Center
Sat 12:58:01 PM 39.9208 -107.0856 82° East 515 593 31,000  Level Denver Center
Sat 12:59:03 PM 39.9431 -106.8931 81° East 520 598 31,000  Level Denver Center
Sat 01:00:05 PM 39.9636 -106.7136 81° East 523 602 31,000  Level Denver Center
Sat 01:01:08 PM 39.9894 -106.4906 81° East 515 593 31,000  Level Denver Center
Sat 01:02:10 PM 40.0097 -106.3050 82° East 513 590 31,000  Level Denver Center
Sat 01:03:12 PM 40.0281 -106.1178 83° East 513 590 31,000 290 Level Denver Center
Sat 01:04:14 PM 40.0494 -105.9308 81° East 514 592 31,600 532 Climbing Denver Center
Sat 01:05:16 PM 40.0706 -105.7411 82° East 531 611 32,100 484 Climbing Denver Center
Sat 01:06:18 PM 40.0908 -105.5561 82° East 511 588 32,600 435 Climbing Denver Center
Sat 01:07:20 PM 40.1100 -105.3456 83° East 494 568 33,000 194 Climbing Denver Center
Sat 01:08:22 PM 40.1286 -105.1564 83° East 518 596 33,000  Level Denver Center
Sat 01:09:24 PM 40.1469 -104.9719 83° East 506 582 33,000  Level Denver Center
Sat 01:10:26 PM 40.1658 -104.7792 83° East 522 601 33,000  Level Denver Center
Sat 01:11:28 PM 40.1844 -104.5911 83° East 514 592 33,000  Level Denver Center
Sat 01:12:30 PM 40.2014 -104.4058 83° East 508 585 33,000  Level Denver Center
Sat 01:13:32 PM 40.2183 -104.2189 83° East 507 583 33,000  Level Denver Center
Sat 01:14:34 PM 40.2344 -104.0342 83° East 505 581 33,000  Level Denver Center
Sat 01:15:36 PM 40.2511 -103.8464 83° East 508 585 33,000  Level Denver Center
Sat 01:16:38 PM 40.2700 -103.6322 83° East 500 575 33,000  Level Denver Center
Sat 01:17:40 PM 40.2864 -103.4461 83° East 507 583 33,000  Level Denver Center
Sat 01:18:42 PM 40.3019 -103.2589 84° East 511 588 33,000  Level Denver Center
Sat 01:19:44 PM 40.3178 -103.0722 84° East 511 588 33,000  Level Denver Center
Sat 01:20:46 PM 40.3328 -102.8839 84° East 514 592 33,000  Level Denver Center
Sat 01:21:48 PM 40.3467 -102.6933 84° East 519 597 33,000  Level Denver Center
Sat 01:22:50 PM 40.3619 -102.4942 84° East 519 597 33,000  Level Denver Center
Sat 01:23:52 PM 40.3761 -102.3147 84° East 518 596 33,000  Level Denver Center
Sat 01:24:54 PM 40.3914 -102.1031 85° East 523 602 33,000  Level Denver Center
Sat 01:25:56 PM 40.4039 -101.9225 85° East 521 600 33,000  Level Denver Center
Sat 01:26:58 PM 40.4197 -101.7106 84° East 524 603 33,000  Level Denver Center
Sat 01:28:00 PM 40.4322 -101.5306 85° East 522 601 33,000  Level Denver Center
Sat 01:29:01 PM 40.4461 -101.3186 85° East 524 603 33,000  Level Denver Center
Sat 01:30:03 PM 40.4581 -101.1356 85° East 527 606 33,000  Level Denver Center
Sat 01:31:05 PM 40.4714 -100.9239 85° East 527 606 33,000  Level Denver Center
Sat 01:32:07 PM 40.4831 -100.7414 85° East 529 609 33,000  Level Denver Center
Sat 01:33:09 PM 40.4953 -100.5314 86° East 525 604 33,000  Level Denver Center
Sat 01:34:11 PM 40.5056 -100.3489 86° East 526 605 33,000  Level Denver Center
Sat 01:35:13 PM 40.5178 -100.1378 86° East 525 604 33,000  Level Denver Center
Sat 01:36:14 PM 40.5278 -99.9547 86° East 527 606 33,000  Level Denver Center
Sat 01:37:16 PM 40.5383 -99.7517 86° East 526 605 33,000  Level Denver Center
Sat 01:38:18 PM 40.5478 -99.5592 86° East 529 609 33,000  Level Denver Center
Sat 01:39:20 PM 40.5583 -99.3672 86° East 530 610 33,000  Level Denver Center
Sat 01:40:22 PM 40.5675 -99.1742 86° East 531 611 33,000  Level Denver Center
Sat 01:41:23 PM 40.5783 -98.9431 86° East 532 612 33,000  Level Denver Center
Sat 01:42:25 PM 40.5867 -98.7481 87° East 537 618 33,000  Level Denver Center
Sat 01:43:27 PM 40.5958 -98.5550 86° East 534 615 33,000  Level Denver Center
Sat 01:44:36 PM 40.6044 -98.3269 87° East 531 611 33,000  Level Minneapolis Center
Sat 01:45:37 PM 40.6111 -98.1411 87° East 522 601 33,000  Level Minneapolis Center
Sat 01:46:39 PM 40.6181 -97.9542 87° East 517 595 33,000  Level Minneapolis Center
Sat 01:47:40 PM 40.6253 -97.7692 87° East 513 590 33,000  Level Minneapolis Center
Sat 01:48:42 PM 40.6306 -97.5817 88° East 512 589 33,000  Level Minneapolis Center
Sat 01:49:43 PM 40.6367 -97.3925 88° East 515 593 33,000  Level Minneapolis Center
Sat 01:50:45 PM 40.6431 -97.2019 87° East 519 597 33,000  Level Minneapolis Center
Sat 01:51:46 PM 40.6494 -96.9800 88° East 515 593 33,000  Level Minneapolis Center
Sat 01:52:48 PM 40.6544 -96.7978 88° East 508 585 33,000  Level Minneapolis Center
Sat 01:53:49 PM 40.6586 -96.6081 88° East 511 588 33,000  Level Minneapolis Center
Sat 01:54:51 PM 40.6639 -96.4169 88° East 522 601 33,000 -49 Level Minneapolis Center
Sat 01:55:52 PM 40.6681 -96.2258 88° East 525 604 32,900  Descending Minneapolis Center
Sat 01:56:54 PM 40.6722 -96.0339 88° East 527 606 33,000 49 Climbing Minneapolis Center
Sat 01:57:55 PM 40.6756 -95.8458 89° East 521 600 33,000  Level Minneapolis Center
Sat 01:58:57 PM 40.6667 -95.6228 93° East 513 590 33,000  Level Minneapolis Center
Sat 01:59:59 PM 40.6689 -95.4347 89° East 514 592 33,000  Level Minneapolis Center
Sat 02:01:03 PM 40.6753 -95.2497 87° East 510 587 33,000  Level Minneapolis Center
Sat 02:02:05 PM 40.6783 -95.0647 89° East 508 585 33,000  Level Minneapolis Center
Sat 02:03:06 PM 40.6825 -94.8792 88° East 508 585 33,000  Level Minneapolis Center
Sat 02:04:08 PM 40.6861 -94.6592 89° East 504 580 33,000  Level Minneapolis Center
Sat 02:05:09 PM 40.6889 -94.5058 89° East 505 581 33,000  Level Minneapolis Center
Sat 02:06:11 PM 40.6917 -94.2892 89° East 500 575 33,000  Level Minneapolis Center
Sat 02:07:12 PM 40.6931 -94.1111 89° East 493 567 33,000  Level Minneapolis Center
Sat 02:08:14 PM 40.6936 -93.9317 90° East 492 566 33,000 244 Level Minneapolis Center
Sat 02:09:15 PM 40.6928 -93.7536 90° East 492 566 33,500 439 Climbing Minneapolis Center
Sat 02:10:17 PM 40.6936 -93.5731 90° East 493 567 33,900 488 Climbing Minneapolis Center
Sat 02:11:18 PM 40.6939 -93.3928 90° East 493 567 34,500 537 Climbing Minneapolis Center
Sat 02:12:20 PM 40.6933 -93.2158 90° East 491 565 35,000 244 Climbing Minneapolis Center
Sat 02:13:21 PM 40.6914 -93.0017 91° East 490 564 35,000  Level Minneapolis Center
Sat 02:14:15 PM 40.6914 -92.8556 90° East 493 567 35,000  Level Chicago Center
Sat 02:15:17 PM 40.6892 -92.6722 91° East 498 573 35,000  Level Chicago Center
Sat 02:16:19 PM 40.6878 -92.4900 91° East 496 571 35,000  Level Chicago Center
Sat 02:17:20 PM 40.6858 -92.3083 91° East 495 570 35,000  Level Chicago Center
Sat 02:18:22 PM 40.6833 -92.0928 91° East 491 565 35,000  Level Chicago Center
Sat 02:19:24 PM 40.6803 -91.9119 91° East 494 568 35,000  Level Chicago Center
Sat 02:20:24 PM 40.6764 -91.7344 92° East 489 563 35,000  Level Kansas City Center
Sat 02:21:25 PM 40.6733 -91.5539 91° East 494 568 35,000  Level Kansas City Center
Sat 02:22:29 PM 40.6711 -91.3733 91° East 497 572 35,000  Level Chicago Center
Sat 02:23:31 PM 40.6661 -91.1736 92° East 495 570 35,000 48 Level Chicago Center
Sat 02:24:33 PM 40.6619 -90.9942 92° East 492 566 35,100  Climbing Chicago Center
Sat 02:25:34 PM 40.6578 -90.8150 92° East 491 565 35,000 -49 Descending Chicago Center
Sat 02:26:36 PM 40.6533 -90.6378 92° East 486 559 35,000  Level Chicago Center
Sat 02:27:38 PM 40.6483 -90.4664 92° East 475 547 35,000  Level Chicago Center
Sat 02:28:40 PM 40.6436 -90.2942 92° East 472 543 35,000  Level Chicago Center
Sat 02:29:41 PM 40.6375 -90.1125 92° East 472 543 35,000  Level Chicago Center
Sat 02:30:43 PM 40.6311 -89.9075 92° East 471 542 35,000  Level Chicago Center
Sat 02:31:45 PM 40.6247 -89.7344 93° East 476 548 35,000  Level Chicago Center
Sat 02:32:47 PM 40.6183 -89.5636 93° East 472 543 35,000  Level Chicago Center
Sat 02:33:48 PM 40.6122 -89.3778 92° East 471 542 35,000  Level Chicago Center
Sat 02:34:50 PM 40.6050 -89.2056 93° East 471 542 35,000  Level Chicago Center
Sat 02:35:52 PM 40.5978 -89.0342 93° East 472 543 35,000  Level Chicago Center
Sat 02:36:54 PM 40.5928 -88.8622 92° East 473 544 35,000  Level Chicago Center
Sat 02:37:55 PM 40.5839 -88.6722 93° East 480 552 35,000  Level Chicago Center
Sat 02:38:57 PM 40.5764 -88.4983 93° East 482 555 35,000  Level Chicago Center
Sat 02:39:59 PM 40.5686 -88.3256 93° East 478 550 35,000  Level Chicago Center
Sat 02:41:01 PM 40.5606 -88.1525 93° East 478 550 35,000  Level Chicago Center
Sat 02:42:03 PM 40.5508 -87.9467 93° East 476 548 35,000  Level Chicago Center
Sat 02:43:05 PM 40.5417 -87.7728 94° East 480 552 35,000  Level Chicago Center
Sat 02:44:06 PM 40.5331 -87.5972 94° East 485 558 35,000  Level Chicago Center
Sat 02:45:08 PM 40.5236 -87.4239 94° East 483 556 35,000  Level Chicago Center
Sat 02:46:10 PM 40.5136 -87.2511 94° East 480 552 35,000  Level Chicago Center
Sat 02:47:12 PM 40.5014 -87.0525 95° East 479 551 35,000  Level Chicago Center
Sat 02:48:14 PM 40.4911 -86.8711 94° East 487 560 35,000  Level Chicago Center
Sat 02:49:16 PM 40.4803 -86.6908 94° East 489 563 35,000  Level Chicago Center
Sat 02:50:18 PM 40.4683 -86.5081 95° East 494 568 35,000  Level Chicago Center
Sat 02:51:20 PM 40.4692 -86.3222 90° East 503 579 35,000  Level Chicago Center
Sat 02:52:22 PM 40.4711 -86.1358 89° East 505 581 35,000  Level Chicago Center
Sat 02:53:23 PM 40.4728 -85.9497 89° East 504 580 35,000  Level Chicago Center
Sat 02:54:25 PM 40.4744 -85.7306 89° East 507 583 35,000  Level Chicago Center
Sat 02:55:27 PM 40.4761 -85.5433 89° East 507 583 35,000  Level Chicago Center
Sat 02:56:29 PM 40.4767 -85.3583 90° East 502 578 35,000  Level Chicago Center
Sat 02:57:31 PM 40.4764 -85.1703 90° East 509 586 35,000  Level Chicago Center
Sat 02:58:33 PM 40.4775 -84.9822 89° East 510 587 35,000  Level Chicago Center
Sat 02:59:25 PM 40.4758 -84.8053 91° East 510 587 35,000  Level Indianapolis Center
Sat 03:00:27 PM 40.4761 -84.6172 90° East 510 587 35,000  Level Indianapolis Center
Sat 03:01:29 PM 40.4750 -84.4300 90° East 508 585 35,000  Level Indianapolis Center
Sat 03:02:31 PM 40.4744 -84.2408 90° East 511 588 35,000  Level Indianapolis Center
Sat 03:03:32 PM 40.4722 -84.0492 91° East 517 595 35,000  Level Indianapolis Center
Sat 03:04:34 PM 40.4711 -83.8594 90° East 515 593 35,000  Level Indianapolis Center
Sat 03:05:36 PM 40.4697 -83.6711 90° East 511 588 35,000  Level Indianapolis Center
Sat 03:06:38 PM 40.4675 -83.4817 91° East 512 589 35,000 -48 Level Indianapolis Center
Sat 03:07:40 PM 40.4642 -83.2928 91° East 511 588 34,900 -48 Descending Indianapolis Center
Sat 03:08:42 PM 40.4619 -83.1028 91° East 513 590 34,900 49 Level Indianapolis Center
Sat 03:09:43 PM 40.4586 -82.9128 91° East 514 592 35,000 49 Climbing Indianapolis Center
Sat 03:10:45 PM 40.4544 -82.6925 91° East 518 596 35,000  Level Indianapolis Center
Sat 03:11:47 PM 40.4514 -82.5039 91° East 516 594 35,000  Level Indianapolis Center
Sat 03:12:49 PM 40.4472 -82.3181 92° East 509 586 35,000  Level Indianapolis Center
Sat 03:13:50 PM 40.4428 -82.1347 92° East 503 579 35,000  Level Indianapolis Center
Sat 03:14:38 PM 40.4381 -81.9744 92° East 503 579 35,000  Level Cleveland Center
Sat 03:15:38 PM 40.4317 -81.7914 93° East 503 579 35,000  Level Cleveland Center
Sat 03:16:38 PM 40.4272 -81.6086 92° East 498 573 35,000  Level Cleveland Center
Sat 03:17:38 PM 40.4225 -81.4203 92° East 503 579 35,000  Level Cleveland Center
Sat 03:18:38 PM 40.4197 -81.2375 91° East 503 579 35,000  Level Cleveland Center
Sat 03:19:38 PM 40.4144 -81.0522 92° East 503 579 35,000  Level Cleveland Center
Sat 03:20:38 PM 40.4086 -80.8639 92° East 508 585 35,000  Level Cleveland Center
Sat 03:21:38 PM 40.4028 -80.6786 92° East 508 585 35,000  Level Cleveland Center
Sat 03:22:38 PM 40.3944 -80.4903 93° East 513 590 35,000  Level Cleveland Center
Sat 03:23:38 PM 40.3836 -80.3050 94° East 513 590 35,000  Level Cleveland Center
Sat 03:24:38 PM 40.3769 -80.1225 93° East 513 590 35,000  Level Cleveland Center
Sat 03:25:38 PM 40.3719 -79.9508 92° East 518 596 35,000  Level Cleveland Center
Sat 03:26:38 PM 40.3644 -79.7628 93° East 518 596 35,000  Level Cleveland Center
Sat 03:27:38 PM 40.3547 -79.5806 94° East 512 589 35,000  Level Cleveland Center
Sat 03:28:38 PM 40.3467 -79.3953 93° East 512 589 35,000 -200 Level Cleveland Center
Sat 03:29:38 PM 40.3339 -79.1914 95° East 512 589 34,600 -700 Descending Cleveland Center
Sat 03:30:38 PM 40.3253 -79.0225 94° East 519 597 33,600 -950 Descending Cleveland Center
Sat 03:31:38 PM 40.3144 -78.8350 94° East 519 597 32,700 -900 Descending Cleveland Center
Sat 03:32:38 PM 40.3156 -78.6469 89° East 519 597 31,800 -900 Descending Cleveland Center
Sat 03:33:38 PM 40.3142 -78.4619 91° East 514 592 30,900 -1,633 Descending Cleveland Center
Sat 03:35:16 PM 40.3139 -78.1594 90° East 534 615 27,500 -2,127 Descending New York Center
Sat 03:36:16 PM 40.3122 -77.9822 91° East 513 590 25,300 -1,240 Descending New York Center
Sat 03:37:17 PM 40.3122 -77.8106 90° East 488 562 25,000 -738 Descending New York Center
Sat 03:38:18 PM 40.3019 -77.6297 94° East 483 556 23,800 -1,613 Descending New York Center
Sat 03:39:16 PM 40.2806 -77.4561 99° East 483 556 21,800 -2,118 Descending New York Center
Sat 03:40:17 PM 40.2514 -77.2683 101° East 483 556 19,600 -1,884 Descending New York Center
Sat 03:41:17 PM 40.2328 -77.1117 99° East 462 532 18,000 -800 Descending New York Center
Sat 03:42:17 PM 40.2103 -76.9492 100° East 449 517 18,000  Level New York Center
Sat 03:43:18 PM 40.1875 -76.7842 100° East 449 517 18,000  Level New York Center
Sat 03:44:17 PM 40.1664 -76.6219 100° East 454 522 18,000 -1,160 Level New York Center
Sat 03:45:17 PM 40.1464 -76.4764 100° East 449 517 15,700 -2,227 Descending New York Center
Sat 03:45:54 PM 40.1306 -76.3706 101° East 433 498 14,400 -2,105 Descending FAA TRACON SMA TRACON (SMA)
Sat 03:46:14 PM 40.1231 -76.3136 100° East 427 491 13,700 -1,950 Descending FAA TRACON SMA TRACON (SMA)
Sat 03:46:34 PM 40.1192 -76.2778 98° East 422 486 13,100 -2,100 Descending FAA TRACON SMA TRACON (SMA)
Sat 03:46:54 PM 40.1147 -76.2208 96° East 417 480 12,300 -2,250 Descending FAA TRACON SMA TRACON (SMA)
Sat 03:47:14 PM 40.1111 -76.1644 95° East 407 468 11,600 -1,500 Descending FAA TRACON SMA TRACON (SMA)
Sat 03:47:34 PM 40.1081 -76.1206 95° East 396 456 11,300 -750 Descending FAA TRACON SMA TRACON (SMA)
Sat 03:47:54 PM 40.1056 -76.0786 94° East 382 440 11,100 -837 Descending FAA TRACON SMA TRACON (SMA)
Sat 03:48:17 PM 40.1019 -76.0286 95° East 363 418 10,700 -977 Descending FAA TRACON SMA TRACON (SMA)
Sat 03:48:37 PM 40.1000 -75.9825 93° East 339 390 10,400 -811 Descending FAA TRACON SMA TRACON (SMA)
Sat 03:48:54 PM 40.0969 -75.9542 98° East 336 387 10,200 -811 Descending FAA TRACON SMA TRACON (SMA)
Sat 03:49:14 PM 40.0936 -75.9106 96° East 316 364 9,900 -1,350 Descending FAA TRACON SMA TRACON (SMA)
Sat 03:49:34 PM 40.0917 -75.8783 94° East 296 341 9,300 -1,950 Descending FAA TRACON SMA TRACON (SMA)
Sat 03:49:54 PM 40.0892 -75.8456 96° East 295 339 8,600 -2,100 Descending FAA TRACON SMA TRACON (SMA)
Sat 03:50:14 PM 40.0869 -75.8061 94° East 293 337 7,900 -1,650 Descending FAA TRACON SMA TRACON (SMA)
Sat 03:50:34 PM 40.0831 -75.7719 98° East 293 337 7,500 -1,200 Descending FAA TRACON SMA TRACON (SMA)
Sat 03:50:54 PM 40.0811 -75.7400 95° East 291 335 7,100 -1,350 Descending FAA TRACON SMA TRACON (SMA)
Sat 03:51:14 PM 40.0792 -75.7011 94° East 284 327 6,600 -1,350 Descending FAA TRACON SMA TRACON (SMA)
Sat 03:51:34 PM 40.0781 -75.6706 93° East 278 320 6,200 -1,050 Descending FAA TRACON SMA TRACON (SMA)
Sat 03:51:54 PM 40.0769 -75.6350 92° East 272 313 5,900 -450 Descending FAA TRACON SMA TRACON (SMA)
Sat 03:52:14 PM 40.0744 -75.6031 96° East 271 312 5,900  Level FAA TRACON SMA TRACON (SMA)
Sat 03:52:34 PM 40.0739 -75.5728 91° East 271 312 5,900  Level FAA TRACON SMA TRACON (SMA)
Sat 03:52:54 PM 40.0722 -75.5428 94° East 268 308 5,900  Level FAA TRACON SMA TRACON (SMA)
Sat 03:53:14 PM 40.0706 -75.5056 93° East 268 308 5,900  Level FAA TRACON SMA TRACON (SMA)
Sat 03:53:34 PM 40.0692 -75.4756 93° East 268 308 5,900  Level FAA TRACON SMA TRACON (SMA)
Sat 03:53:54 PM 40.0681 -75.4469 93° East 269 310 5,900  Level FAA TRACON SMA TRACON (SMA)
Sat 03:54:14 PM 40.0656 -75.4086 95° East 269 310 5,900  Level FAA TRACON SMA TRACON (SMA)
Sat 03:54:34 PM 40.0639 -75.3778 94° East 269 310 5,900  Level FAA TRACON SMA TRACON (SMA)
Sat 03:54:54 PM 40.0625 -75.3444 93° East 271 312 5,900  Level FAA TRACON SMA TRACON (SMA)
Sat 03:55:14 PM 40.0606 -75.3100 94° East 268 308 5,900  Level FAA TRACON SMA TRACON (SMA)
Sat 03:55:34 PM 40.0594 -75.2806 93° East 269 310 5,900  Level FAA TRACON SMA TRACON (SMA)
Sat 03:55:54 PM 40.0553 -75.2517 101° East 275 316 5,900  Level FAA TRACON SMA TRACON (SMA)
Sat 03:56:14 PM 40.0447 -75.2156 111° Southeast 271 312 5,900  Level FAA TRACON SMA TRACON (SMA)
Sat 03:56:34 PM 40.0367 -75.1897 112° Southeast 250 288 5,900  Level FAA TRACON SMA TRACON (SMA)
Sat 03:56:54 PM 40.0289 -75.1650 112° Southeast 244 281 5,900  Level FAA TRACON SMA TRACON (SMA)
Sat 03:57:14 PM 40.0197 -75.1336 111° Southeast 235 270 5,900  Level FAA TRACON SMA TRACON (SMA)
Sat 03:57:34 PM 40.0131 -75.1086 109° East 237 273 5,900 -450 Level FAA TRACON SMA TRACON (SMA)
Sat 03:57:54 PM 40.0058 -75.0853 112° Southeast 238 274 5,600 -1,200 Descending FAA TRACON SMA TRACON (SMA)
Sat 03:58:34 PM 39.9831 -75.0394 123° Southeast 199 229 4,700 -1,200 Descending FAA TRACON SMA TRACON (SMA)
Sat 03:58:54 PM 39.9658 -75.0339 166° South 206 237 4,400 -900 Descending FAA TRACON SMA TRACON (SMA)
Sat 03:59:14 PM 39.9461 -75.0283 168° South 195 224 4,100 -1,200 Descending FAA TRACON SMA TRACON (SMA)
Sat 03:59:34 PM 39.9297 -75.0239 168° South 188 216 3,600 -1,500 Descending FAA TRACON SMA TRACON (SMA)
Sat 03:59:54 PM 39.9142 -75.0244 182° South 205 236 3,100 -1,350 Descending FAA TRACON SMA TRACON (SMA)
Sat 04:00:14 PM 39.9067 -75.0408 239° Southwest 176 203 2,700 -1,200 Descending FAA TRACON SMA TRACON (SMA)

Login

Don't have an account? Register now (free) for customized features, flight alerts, and more!